sensor_id;sensor_type;location;lat;lon;timestamp;temperature;humidity
9837;DHT22;4957;51.412;6.724;2024-01-06T00:00:28;7.80;99.90
9837;DHT22;4957;51.412;6.724;2024-01-06T00:02:53;7.70;99.90
9837;DHT22;4957;51.412;6.724;2024-01-06T00:05:19;7.70;99.90
9837;DHT22;4957;51.412;6.724;2024-01-06T00:07:45;7.70;99.90
9837;DHT22;4957;51.412;6.724;2024-01-06T00:10:10;7.70;99.90
9837;DHT22;4957;51.412;6.724;2024-01-06T00:12:36;7.70;99.90
9837;DHT22;4957;51.412;6.724;2024-01-06T00:15:02;7.70;99.90
9837;DHT22;4957;51.412;6.724;2024-01-06T00:17:28;7.70;99.90
9837;DHT22;4957;51.412;6.724;2024-01-06T00:19:54;7.70;99.90
9837;DHT22;4957;51.412;6.724;2024-01-06T00:22:20;7.70;99.90
9837;DHT22;4957;51.412;6.724;2024-01-06T00:24:46;7.70;99.90
9837;DHT22;4957;51.412;6.724;2024-01-06T00:27:12;7.70;99.90
9837;DHT22;4957;51.412;6.724;2024-01-06T00:29:39;7.70;99.90
9837;DHT22;4957;51.412;6.724;2024-01-06T00:32:05;7.70;99.90
9837;DHT22;4957;51.412;6.724;2024-01-06T00:34:30;7.70;99.90
9837;DHT22;4957;51.412;6.724;2024-01-06T00:36:56;7.70;99.90
9837;DHT22;4957;51.412;6.724;2024-01-06T00:39:22;7.70;99.90
9837;DHT22;4957;51.412;6.724;2024-01-06T00:41:47;7.70;99.90
9837;DHT22;4957;51.412;6.724;2024-01-06T00:44:13;7.70;99.90
9837;DHT22;4957;51.412;6.724;2024-01-06T00:46:39;7.70;99.90
9837;DHT22;4957;51.412;6.724;2024-01-06T00:49:05;7.70;99.90
9837;DHT22;4957;51.412;6.724;2024-01-06T00:51:30;7.70;99.90
9837;DHT22;4957;51.412;6.724;2024-01-06T00:53:56;7.70;99.90
9837;DHT22;4957;51.412;6.724;2024-01-06T00:56:22;7.70;99.90
9837;DHT22;4957;51.412;6.724;2024-01-06T00:58:48;7.70;99.90
9837;DHT22;4957;51.412;6.724;2024-01-06T01:01:14;7.70;99.90
9837;DHT22;4957;51.412;6.724;2024-01-06T01:03:39;7.70;99.90
9837;DHT22;4957;51.412;6.724;2024-01-06T01:06:05;7.70;99.90
9837;DHT22;4957;51.412;6.724;2024-01-06T01:08:31;7.70;99.90
9837;DHT22;4957;51.412;6.724;2024-01-06T01:10:57;7.70;99.90
9837;DHT22;4957;51.412;6.724;2024-01-06T01:13:23;7.70;99.90
9837;DHT22;4957;51.412;6.724;2024-01-06T01:15:49;7.70;99.90
9837;DHT22;4957;51.412;6.724;2024-01-06T01:18:14;7.70;99.90
9837;DHT22;4957;51.412;6.724;2024-01-06T01:20:40;7.70;99.90
9837;DHT22;4957;51.412;6.724;2024-01-06T01:23:09;7.70;99.90
9837;DHT22;4957;51.412;6.724;2024-01-06T01:25:34;7.70;99.90
9837;DHT22;4957;51.412;6.724;2024-01-06T01:28:00;7.70;99.90
9837;DHT22;4957;51.412;6.724;2024-01-06T01:30:26;7.70;99.90
9837;DHT22;4957;51.412;6.724;2024-01-06T01:32:52;7.80;99.90
9837;DHT22;4957;51.412;6.724;2024-01-06T01:35:18;7.70;99.90
9837;DHT22;4957;51.412;6.724;2024-01-06T01:37:44;7.80;99.90
9837;DHT22;4957;51.412;6.724;2024-01-06T01:40:10;7.70;99.90
9837;DHT22;4957;51.412;6.724;2024-01-06T01:42:35;7.70;99.90
9837;DHT22;4957;51.412;6.724;2024-01-06T01:45:01;7.70;99.90
9837;DHT22;4957;51.412;6.724;2024-01-06T01:47:27;7.70;99.90
9837;DHT22;4957;51.412;6.724;2024-01-06T01:49:54;7.80;99.90
9837;DHT22;4957;51.412;6.724;2024-01-06T01:52:20;7.70;99.90
9837;DHT22;4957;51.412;6.724;2024-01-06T01:54:46;7.70;99.90
9837;DHT22;4957;51.412;6.724;2024-01-06T01:57:13;7.70;99.90
9837;DHT22;4957;51.412;6.724;2024-01-06T01:59:40;7.70;99.90
9837;DHT22;4957;51.412;6.724;2024-01-06T02:02:06;7.70;99.90
9837;DHT22;4957;51.412;6.724;2024-01-06T02:04:32;7.70;99.90
9837;DHT22;4957;51.412;6.724;2024-01-06T02:06:57;7.70;99.90
9837;DHT22;4957;51.412;6.724;2024-01-06T02:09:23;7.70;99.90
9837;DHT22;4957;51.412;6.724;2024-01-06T02:11:52;7.80;99.90
9837;DHT22;4957;51.412;6.724;2024-01-06T02:14:18;7.70;99.90
9837;DHT22;4957;51.412;6.724;2024-01-06T02:16:44;7.70;99.90
9837;DHT22;4957;51.412;6.724;2024-01-06T02:19:11;7.70;99.90
9837;DHT22;4957;51.412;6.724;2024-01-06T02:21:42;7.70;99.90
9837;DHT22;4957;51.412;6.724;2024-01-06T02:24:07;7.70;99.90
9837;DHT22;4957;51.412;6.724;2024-01-06T02:26:33;7.70;99.90
9837;DHT22;4957;51.412;6.724;2024-01-06T02:28:59;7.80;99.90
9837;DHT22;4957;51.412;6.724;2024-01-06T02:31:24;7.70;99.90
9837;DHT22;4957;51.412;6.724;2024-01-06T02:33:50;7.70;99.90
9837;DHT22;4957;51.412;6.724;2024-01-06T02:36:16;7.70;99.90
9837;DHT22;4957;51.412;6.724;2024-01-06T02:38:41;7.70;99.90
9837;DHT22;4957;51.412;6.724;2024-01-06T02:41:07;7.70;99.90
9837;DHT22;4957;51.412;6.724;2024-01-06T02:43:33;7.70;99.90
9837;DHT22;4957;51.412;6.724;2024-01-06T02:45:58;7.70;99.90
9837;DHT22;4957;51.412;6.724;2024-01-06T02:48:24;7.70;99.90
9837;DHT22;4957;51.412;6.724;2024-01-06T02:50:50;7.70;99.90
9837;DHT22;4957;51.412;6.724;2024-01-06T02:53:16;7.70;99.90
9837;DHT22;4957;51.412;6.724;2024-01-06T02:55:41;7.70;99.90
9837;DHT22;4957;51.412;6.724;2024-01-06T02:58:07;7.70;99.90
9837;DHT22;4957;51.412;6.724;2024-01-06T03:00:33;7.70;99.90
9837;DHT22;4957;51.412;6.724;2024-01-06T03:02:58;7.70;99.90
9837;DHT22;4957;51.412;6.724;2024-01-06T03:05:24;7.70;99.90
9837;DHT22;4957;51.412;6.724;2024-01-06T03:07:49;7.70;99.90
9837;DHT22;4957;51.412;6.724;2024-01-06T03:10:15;7.70;99.90
9837;DHT22;4957;51.412;6.724;2024-01-06T03:12:41;7.70;99.90
9837;DHT22;4957;51.412;6.724;2024-01-06T03:15:07;7.70;99.90
9837;DHT22;4957;51.412;6.724;2024-01-06T03:17:33;7.70;99.90
9837;DHT22;4957;51.412;6.724;2024-01-06T03:19:59;7.70;99.90
9837;DHT22;4957;51.412;6.724;2024-01-06T03:22:24;7.70;99.90
9837;DHT22;4957;51.412;6.724;2024-01-06T03:24:50;7.70;99.90
9837;DHT22;4957;51.412;6.724;2024-01-06T03:27:16;7.70;99.90
9837;DHT22;4957;51.412;6.724;2024-01-06T03:29:41;7.70;99.90
9837;DHT22;4957;51.412;6.724;2024-01-06T03:32:07;7.70;99.90
9837;DHT22;4957;51.412;6.724;2024-01-06T03:34:33;7.60;99.90
9837;DHT22;4957;51.412;6.724;2024-01-06T03:36:58;7.60;99.90
9837;DHT22;4957;51.412;6.724;2024-01-06T03:39:24;7.60;99.90
9837;DHT22;4957;51.412;6.724;2024-01-06T03:41:49;7.60;99.90
9837;DHT22;4957;51.412;6.724;2024-01-06T03:44:15;7.60;99.90
9837;DHT22;4957;51.412;6.724;2024-01-06T03:46:41;7.60;99.90
9837;DHT22;4957;51.412;6.724;2024-01-06T03:49:06;7.60;99.90
9837;DHT22;4957;51.412;6.724;2024-01-06T03:51:32;7.60;99.90
9837;DHT22;4957;51.412;6.724;2024-01-06T03:53:58;7.60;99.90
9837;DHT22;4957;51.412;6.724;2024-01-06T03:56:23;7.60;99.90
9837;DHT22;4957;51.412;6.724;2024-01-06T03:58:49;7.60;99.90
9837;DHT22;4957;51.412;6.724;2024-01-06T04:01:15;7.50;99.90
9837;DHT22;4957;51.412;6.724;2024-01-06T04:03:40;7.50;99.90
9837;DHT22;4957;51.412;6.724;2024-01-06T04:06:06;7.50;99.90
9837;DHT22;4957;51.412;6.724;2024-01-06T04:08:32;7.50;99.90
9837;DHT22;4957;51.412;6.724;2024-01-06T04:10:57;7.50;99.90
9837;DHT22;4957;51.412;6.724;2024-01-06T04:13:23;7.50;99.90
9837;DHT22;4957;51.412;6.724;2024-01-06T04:15:50;7.50;99.90
9837;DHT22;4957;51.412;6.724;2024-01-06T04:18:16;7.50;99.90
9837;DHT22;4957;51.412;6.724;2024-01-06T04:20:42;7.40;99.90
9837;DHT22;4957;51.412;6.724;2024-01-06T04:23:07;7.40;99.90
9837;DHT22;4957;51.412;6.724;2024-01-06T04:25:33;7.40;99.90
9837;DHT22;4957;51.412;6.724;2024-01-06T04:27:59;7.40;99.90
9837;DHT22;4957;51.412;6.724;2024-01-06T04:30:24;7.40;99.90
9837;DHT22;4957;51.412;6.724;2024-01-06T04:32:51;7.40;99.90
9837;DHT22;4957;51.412;6.724;2024-01-06T04:35:17;7.40;99.90
9837;DHT22;4957;51.412;6.724;2024-01-06T04:37:43;7.40;99.90
9837;DHT22;4957;51.412;6.724;2024-01-06T04:40:10;7.40;99.90
9837;DHT22;4957;51.412;6.724;2024-01-06T04:42:36;7.40;99.90
9837;DHT22;4957;51.412;6.724;2024-01-06T04:45:01;7.40;99.90
9837;DHT22;4957;51.412;6.724;2024-01-06T04:47:28;7.40;99.90
9837;DHT22;4957;51.412;6.724;2024-01-06T04:49:56;7.30;99.90
9837;DHT22;4957;51.412;6.724;2024-01-06T04:52:21;7.30;99.90
9837;DHT22;4957;51.412;6.724;2024-01-06T04:54:47;7.30;99.90
9837;DHT22;4957;51.412;6.724;2024-01-06T04:57:13;7.30;99.90
9837;DHT22;4957;51.412;6.724;2024-01-06T04:59:39;7.30;99.90
9837;DHT22;4957;51.412;6.724;2024-01-06T05:02:05;7.30;99.90
9837;DHT22;4957;51.412;6.724;2024-01-06T05:04:31;7.30;99.90
9837;DHT22;4957;51.412;6.724;2024-01-06T05:06:58;7.30;99.90
9837;DHT22;4957;51.412;6.724;2024-01-06T05:09:27;7.30;99.90
9837;DHT22;4957;51.412;6.724;2024-01-06T05:11:52;7.30;99.90
9837;DHT22;4957;51.412;6.724;2024-01-06T05:14:18;7.30;99.90
9837;DHT22;4957;51.412;6.724;2024-01-06T05:16:44;7.30;99.90
9837;DHT22;4957;51.412;6.724;2024-01-06T05:19:09;7.20;99.90
9837;DHT22;4957;51.412;6.724;2024-01-06T05:21:35;7.30;99.90
9837;DHT22;4957;51.412;6.724;2024-01-06T05:24:01;7.20;99.90
9837;DHT22;4957;51.412;6.724;2024-01-06T05:26:26;7.20;99.90
9837;DHT22;4957;51.412;6.724;2024-01-06T05:28:52;7.20;99.90
9837;DHT22;4957;51.412;6.724;2024-01-06T05:31:18;7.20;99.90
9837;DHT22;4957;51.412;6.724;2024-01-06T05:33:43;7.20;99.90
9837;DHT22;4957;51.412;6.724;2024-01-06T05:36:09;7.20;99.90
9837;DHT22;4957;51.412;6.724;2024-01-06T05:38:36;7.20;99.90
9837;DHT22;4957;51.412;6.724;2024-01-06T05:41:02;7.20;99.90
9837;DHT22;4957;51.412;6.724;2024-01-06T05:43:28;7.20;99.90
9837;DHT22;4957;51.412;6.724;2024-01-06T05:45:54;7.20;99.90
9837;DHT22;4957;51.412;6.724;2024-01-06T05:48:19;7.20;99.90
9837;DHT22;4957;51.412;6.724;2024-01-06T05:50:45;7.10;99.90
9837;DHT22;4957;51.412;6.724;2024-01-06T05:53:11;7.10;99.90
9837;DHT22;4957;51.412;6.724;2024-01-06T05:55:37;7.10;99.90
9837;DHT22;4957;51.412;6.724;2024-01-06T05:58:04;7.10;99.90
9837;DHT22;4957;51.412;6.724;2024-01-06T06:00:29;7.10;99.90
9837;DHT22;4957;51.412;6.724;2024-01-06T06:02:58;7.10;99.90
9837;DHT22;4957;51.412;6.724;2024-01-06T06:05:24;7.10;99.90
9837;DHT22;4957;51.412;6.724;2024-01-06T06:07:49;7.10;99.90
9837;DHT22;4957;51.412;6.724;2024-01-06T06:10:15;7.10;99.90
9837;DHT22;4957;51.412;6.724;2024-01-06T06:12:42;7.10;99.90
9837;DHT22;4957;51.412;6.724;2024-01-06T06:15:07;7.10;99.90
9837;DHT22;4957;51.412;6.724;2024-01-06T06:17:33;7.10;99.90
9837;DHT22;4957;51.412;6.724;2024-01-06T06:19:59;7.10;99.90
9837;DHT22;4957;51.412;6.724;2024-01-06T06:22:25;7.10;99.90
9837;DHT22;4957;51.412;6.724;2024-01-06T06:25:00;7.10;99.90
9837;DHT22;4957;51.412;6.724;2024-01-06T06:27:26;7.10;99.90
9837;DHT22;4957;51.412;6.724;2024-01-06T06:29:53;7.10;99.90
9837;DHT22;4957;51.412;6.724;2024-01-06T06:32:19;7.10;99.90
9837;DHT22;4957;51.412;6.724;2024-01-06T06:34:45;7.00;99.90
9837;DHT22;4957;51.412;6.724;2024-01-06T06:37:10;7.00;99.90
9837;DHT22;4957;51.412;6.724;2024-01-06T06:39:36;7.00;99.90
9837;DHT22;4957;51.412;6.724;2024-01-06T06:42:02;7.00;99.90
9837;DHT22;4957;51.412;6.724;2024-01-06T06:44:28;7.00;99.90
9837;DHT22;4957;51.412;6.724;2024-01-06T06:46:57;7.00;99.90
9837;DHT22;4957;51.412;6.724;2024-01-06T06:49:23;7.00;99.90
9837;DHT22;4957;51.412;6.724;2024-01-06T06:51:48;7.00;99.90
9837;DHT22;4957;51.412;6.724;2024-01-06T06:54:15;7.00;99.90
9837;DHT22;4957;51.412;6.724;2024-01-06T06:56:42;7.00;99.90
9837;DHT22;4957;51.412;6.724;2024-01-06T06:59:08;7.00;99.90
9837;DHT22;4957;51.412;6.724;2024-01-06T07:01:34;7.00;99.90
9837;DHT22;4957;51.412;6.724;2024-01-06T07:04:01;6.90;99.90
9837;DHT22;4957;51.412;6.724;2024-01-06T07:06:27;6.90;99.90
9837;DHT22;4957;51.412;6.724;2024-01-06T07:08:54;6.90;99.90
9837;DHT22;4957;51.412;6.724;2024-01-06T07:11:20;6.90;99.90
9837;DHT22;4957;51.412;6.724;2024-01-06T07:13:46;6.90;99.90
9837;DHT22;4957;51.412;6.724;2024-01-06T07:16:11;6.90;99.90
9837;DHT22;4957;51.412;6.724;2024-01-06T07:18:37;6.90;99.90
9837;DHT22;4957;51.412;6.724;2024-01-06T07:21:06;6.90;99.90
9837;DHT22;4957;51.412;6.724;2024-01-06T07:23:32;6.90;99.90
9837;DHT22;4957;51.412;6.724;2024-01-06T07:25:58;6.90;99.90
9837;DHT22;4957;51.412;6.724;2024-01-06T07:28:24;6.90;99.90
9837;DHT22;4957;51.412;6.724;2024-01-06T07:30:49;6.90;99.90
9837;DHT22;4957;51.412;6.724;2024-01-06T07:33:15;6.90;99.90
9837;DHT22;4957;51.412;6.724;2024-01-06T07:35:41;6.90;99.90
9837;DHT22;4957;51.412;6.724;2024-01-06T07:38:10;6.90;99.90
9837;DHT22;4957;51.412;6.724;2024-01-06T07:40:36;6.90;99.90
9837;DHT22;4957;51.412;6.724;2024-01-06T07:43:02;6.90;99.90
9837;DHT22;4957;51.412;6.724;2024-01-06T07:45:28;6.90;99.90
9837;DHT22;4957;51.412;6.724;2024-01-06T07:47:53;6.80;99.90
9837;DHT22;4957;51.412;6.724;2024-01-06T07:50:19;6.80;99.90
9837;DHT22;4957;51.412;6.724;2024-01-06T07:52:44;6.80;99.90
9837;DHT22;4957;51.412;6.724;2024-01-06T07:55:10;6.80;99.90
9837;DHT22;4957;51.412;6.724;2024-01-06T07:57:36;6.80;99.90
9837;DHT22;4957;51.412;6.724;2024-01-06T08:00:02;6.80;99.90
9837;DHT22;4957;51.412;6.724;2024-01-06T08:02:28;6.80;99.90
9837;DHT22;4957;51.412;6.724;2024-01-06T08:04:53;6.80;99.90
9837;DHT22;4957;51.412;6.724;2024-01-06T08:07:21;6.80;99.90
9837;DHT22;4957;51.412;6.724;2024-01-06T08:09:47;6.80;99.90
9837;DHT22;4957;51.412;6.724;2024-01-06T08:12:12;6.80;99.90
9837;DHT22;4957;51.412;6.724;2024-01-06T08:14:38;6.80;99.90
9837;DHT22;4957;51.412;6.724;2024-01-06T08:17:04;6.80;99.90
9837;DHT22;4957;51.412;6.724;2024-01-06T08:19:30;6.80;99.90
9837;DHT22;4957;51.412;6.724;2024-01-06T08:21:57;6.80;99.90
9837;DHT22;4957;51.412;6.724;2024-01-06T08:24:23;6.80;99.90
9837;DHT22;4957;51.412;6.724;2024-01-06T08:26:50;6.80;99.90
9837;DHT22;4957;51.412;6.724;2024-01-06T08:29:16;6.80;99.90
9837;DHT22;4957;51.412;6.724;2024-01-06T08:31:42;6.80;99.90
9837;DHT22;4957;51.412;6.724;2024-01-06T08:34:08;6.80;99.90
9837;DHT22;4957;51.412;6.724;2024-01-06T08:36:35;6.80;99.90
9837;DHT22;4957;51.412;6.724;2024-01-06T08:39:00;6.70;99.90
9837;DHT22;4957;51.412;6.724;2024-01-06T08:41:26;6.70;99.90
9837;DHT22;4957;51.412;6.724;2024-01-06T08:43:52;6.70;99.90
9837;DHT22;4957;51.412;6.724;2024-01-06T08:46:17;6.70;99.90
9837;DHT22;4957;51.412;6.724;2024-01-06T08:48:43;6.70;99.90
9837;DHT22;4957;51.412;6.724;2024-01-06T08:51:10;6.70;99.90
9837;DHT22;4957;51.412;6.724;2024-01-06T08:53:35;6.70;99.90
9837;DHT22;4957;51.412;6.724;2024-01-06T08:56:01;6.70;99.90
9837;DHT22;4957;51.412;6.724;2024-01-06T08:58:27;6.70;99.90
9837;DHT22;4957;51.412;6.724;2024-01-06T09:00:53;6.70;99.90
9837;DHT22;4957;51.412;6.724;2024-01-06T09:03:19;6.70;99.90
9837;DHT22;4957;51.412;6.724;2024-01-06T09:05:55;6.70;99.90
9837;DHT22;4957;51.412;6.724;2024-01-06T09:08:20;6.70;99.90
9837;DHT22;4957;51.412;6.724;2024-01-06T09:10:46;6.70;99.90
9837;DHT22;4957;51.412;6.724;2024-01-06T09:13:12;6.70;99.90
9837;DHT22;4957;51.412;6.724;2024-01-06T09:15:37;6.70;99.90
9837;DHT22;4957;51.412;6.724;2024-01-06T09:18:03;6.70;99.90
9837;DHT22;4957;51.412;6.724;2024-01-06T09:20:29;6.70;99.90
9837;DHT22;4957;51.412;6.724;2024-01-06T09:22:54;6.70;99.90
9837;DHT22;4957;51.412;6.724;2024-01-06T09:25:20;6.70;99.90
9837;DHT22;4957;51.412;6.724;2024-01-06T09:27:50;6.70;99.90
9837;DHT22;4957;51.412;6.724;2024-01-06T09:30:16;6.70;99.90
9837;DHT22;4957;51.412;6.724;2024-01-06T09:32:42;6.70;99.90
9837;DHT22;4957;51.412;6.724;2024-01-06T09:35:08;6.70;99.90
9837;DHT22;4957;51.412;6.724;2024-01-06T09:37:33;6.70;99.90
9837;DHT22;4957;51.412;6.724;2024-01-06T09:39:59;6.70;99.90
9837;DHT22;4957;51.412;6.724;2024-01-06T09:42:25;6.70;99.90
9837;DHT22;4957;51.412;6.724;2024-01-06T09:44:51;6.70;99.90
9837;DHT22;4957;51.412;6.724;2024-01-06T09:47:18;6.70;99.90
9837;DHT22;4957;51.412;6.724;2024-01-06T09:49:49;6.60;99.90
9837;DHT22;4957;51.412;6.724;2024-01-06T09:52:15;6.70;99.90
9837;DHT22;4957;51.412;6.724;2024-01-06T09:54:53;6.60;99.90
9837;DHT22;4957;51.412;6.724;2024-01-06T09:57:20;6.60;99.90
9837;DHT22;4957;51.412;6.724;2024-01-06T09:59:46;6.60;99.90
9837;DHT22;4957;51.412;6.724;2024-01-06T10:02:16;6.60;99.90
9837;DHT22;4957;51.412;6.724;2024-01-06T10:04:43;6.60;99.90
9837;DHT22;4957;51.412;6.724;2024-01-06T10:07:10;6.60;99.90
9837;DHT22;4957;51.412;6.724;2024-01-06T10:09:40;6.60;99.90
9837;DHT22;4957;51.412;6.724;2024-01-06T10:12:07;6.60;99.90
9837;DHT22;4957;51.412;6.724;2024-01-06T10:14:33;6.60;99.90
9837;DHT22;4957;51.412;6.724;2024-01-06T10:16:58;6.60;99.90
9837;DHT22;4957;51.412;6.724;2024-01-06T10:19:24;6.60;99.90
9837;DHT22;4957;51.412;6.724;2024-01-06T10:21:50;6.60;99.90
9837;DHT22;4957;51.412;6.724;2024-01-06T10:24:19;6.60;99.90
9837;DHT22;4957;51.412;6.724;2024-01-06T10:26:45;6.60;99.90
9837;DHT22;4957;51.412;6.724;2024-01-06T10:29:12;6.60;99.90
9837;DHT22;4957;51.412;6.724;2024-01-06T10:31:38;6.60;99.90
9837;DHT22;4957;51.412;6.724;2024-01-06T10:34:05;6.50;99.90
9837;DHT22;4957;51.412;6.724;2024-01-06T10:36:31;6.50;99.90
9837;DHT22;4957;51.412;6.724;2024-01-06T10:38:57;6.50;99.90
9837;DHT22;4957;51.412;6.724;2024-01-06T10:41:23;6.50;99.90
9837;DHT22;4957;51.412;6.724;2024-01-06T10:43:51;6.50;99.90
9837;DHT22;4957;51.412;6.724;2024-01-06T10:46:19;6.50;99.90
9837;DHT22;4957;51.412;6.724;2024-01-06T10:48:46;6.50;99.90
9837;DHT22;4957;51.412;6.724;2024-01-06T10:51:13;6.50;99.90
9837;DHT22;4957;51.412;6.724;2024-01-06T10:53:43;6.50;99.90
9837;DHT22;4957;51.412;6.724;2024-01-06T10:56:09;6.50;99.90
9837;DHT22;4957;51.412;6.724;2024-01-06T10:58:45;6.50;99.90
9837;DHT22;4957;51.412;6.724;2024-01-06T11:01:12;6.50;99.90
9837;DHT22;4957;51.412;6.724;2024-01-06T11:03:39;6.50;99.90
9837;DHT22;4957;51.412;6.724;2024-01-06T11:06:06;6.50;99.90
9837;DHT22;4957;51.412;6.724;2024-01-06T11:08:35;6.50;99.90
9837;DHT22;4957;51.412;6.724;2024-01-06T11:11:02;6.50;99.90
9837;DHT22;4957;51.412;6.724;2024-01-06T11:13:28;6.50;99.90
9837;DHT22;4957;51.412;6.724;2024-01-06T11:15:54;6.40;99.90
9837;DHT22;4957;51.412;6.724;2024-01-06T11:18:38;6.40;99.90
9837;DHT22;4957;51.412;6.724;2024-01-06T11:23:39;6.40;99.90
9837;DHT22;4957;51.412;6.724;2024-01-06T11:26:06;6.40;99.90
9837;DHT22;4957;51.412;6.724;2024-01-06T11:28:44;6.40;99.90
9837;DHT22;4957;51.412;6.724;2024-01-06T11:31:10;6.40;99.90
9837;DHT22;4957;51.412;6.724;2024-01-06T11:33:45;6.40;99.90
9837;DHT22;4957;51.412;6.724;2024-01-06T11:36:17;6.40;99.90
9837;DHT22;4957;51.412;6.724;2024-01-06T11:38:46;6.40;99.90
9837;DHT22;4957;51.412;6.724;2024-01-06T11:41:48;6.40;99.90
9837;DHT22;4957;51.412;6.724;2024-01-06T11:44:23;6.40;99.90
9837;DHT22;4957;51.412;6.724;2024-01-06T11:46:49;6.40;99.90
9837;DHT22;4957;51.412;6.724;2024-01-06T11:49:20;6.40;99.90
9837;DHT22;4957;51.412;6.724;2024-01-06T11:51:46;6.30;99.90
9837;DHT22;4957;51.412;6.724;2024-01-06T11:54:12;6.30;99.90
9837;DHT22;4957;51.412;6.724;2024-01-06T11:56:38;6.40;99.90
9837;DHT22;4957;51.412;6.724;2024-01-06T11:59:05;6.30;99.90
9837;DHT22;4957;51.412;6.724;2024-01-06T12:01:38;6.40;99.90
9837;DHT22;4957;51.412;6.724;2024-01-06T12:04:04;6.40;99.90
9837;DHT22;4957;51.412;6.724;2024-01-06T12:06:31;6.30;99.90
9837;DHT22;4957;51.412;6.724;2024-01-06T12:09:07;6.30;99.90
9837;DHT22;4957;51.412;6.724;2024-01-06T12:11:32;6.30;99.90
9837;DHT22;4957;51.412;6.724;2024-01-06T12:13:58;6.30;99.90
9837;DHT22;4957;51.412;6.724;2024-01-06T12:16:24;6.30;99.90
9837;DHT22;4957;51.412;6.724;2024-01-06T12:18:56;6.30;99.90
9837;DHT22;4957;51.412;6.724;2024-01-06T12:21:28;6.30;99.90
9837;DHT22;4957;51.412;6.724;2024-01-06T12:24:11;6.30;99.90
9837;DHT22;4957;51.412;6.724;2024-01-06T12:26:37;6.30;99.90
9837;DHT22;4957;51.412;6.724;2024-01-06T12:29:04;6.30;99.90
9837;DHT22;4957;51.412;6.724;2024-01-06T12:31:29;6.30;99.90
9837;DHT22;4957;51.412;6.724;2024-01-06T12:33:56;6.30;99.90
9837;DHT22;4957;51.412;6.724;2024-01-06T12:36:21;6.20;99.90
9837;DHT22;4957;51.412;6.724;2024-01-06T12:38:47;6.30;99.90
9837;DHT22;4957;51.412;6.724;2024-01-06T12:41:13;6.20;99.90
9837;DHT22;4957;51.412;6.724;2024-01-06T12:43:38;6.20;99.90
9837;DHT22;4957;51.412;6.724;2024-01-06T12:46:04;6.20;99.90
9837;DHT22;4957;51.412;6.724;2024-01-06T12:48:29;6.20;99.90
9837;DHT22;4957;51.412;6.724;2024-01-06T12:50:55;6.20;99.90
9837;DHT22;4957;51.412;6.724;2024-01-06T12:53:21;6.20;99.90
9837;DHT22;4957;51.412;6.724;2024-01-06T12:55:47;6.20;99.90
9837;DHT22;4957;51.412;6.724;2024-01-06T12:58:12;6.20;99.90
9837;DHT22;4957;51.412;6.724;2024-01-06T13:00:38;6.20;99.90
9837;DHT22;4957;51.412;6.724;2024-01-06T13:03:05;6.10;99.90
9837;DHT22;4957;51.412;6.724;2024-01-06T13:05:31;6.10;99.90
9837;DHT22;4957;51.412;6.724;2024-01-06T13:07:57;6.10;99.90
9837;DHT22;4957;51.412;6.724;2024-01-06T13:10:23;6.10;99.90
9837;DHT22;4957;51.412;6.724;2024-01-06T13:12:49;6.10;99.90
9837;DHT22;4957;51.412;6.724;2024-01-06T13:15:15;6.10;99.90
9837;DHT22;4957;51.412;6.724;2024-01-06T13:17:41;6.10;99.90
9837;DHT22;4957;51.412;6.724;2024-01-06T13:20:07;6.10;99.90
9837;DHT22;4957;51.412;6.724;2024-01-06T13:22:33;6.10;99.90
9837;DHT22;4957;51.412;6.724;2024-01-06T13:24:59;6.10;99.90
9837;DHT22;4957;51.412;6.724;2024-01-06T13:27:25;6.10;99.90
9837;DHT22;4957;51.412;6.724;2024-01-06T13:29:54;6.00;99.90
9837;DHT22;4957;51.412;6.724;2024-01-06T13:32:20;6.00;99.90
9837;DHT22;4957;51.412;6.724;2024-01-06T13:34:47;6.00;99.90
9837;DHT22;4957;51.412;6.724;2024-01-06T13:37:13;6.00;99.90
9837;DHT22;4957;51.412;6.724;2024-01-06T13:39:38;6.00;99.90
9837;DHT22;4957;51.412;6.724;2024-01-06T13:42:04;6.00;99.90
9837;DHT22;4957;51.412;6.724;2024-01-06T13:44:30;6.00;99.90
9837;DHT22;4957;51.412;6.724;2024-01-06T13:46:56;6.00;99.90
9837;DHT22;4957;51.412;6.724;2024-01-06T13:49:22;6.00;99.90
9837;DHT22;4957;51.412;6.724;2024-01-06T13:51:49;6.00;99.90
9837;DHT22;4957;51.412;6.724;2024-01-06T13:54:14;6.00;99.90
9837;DHT22;4957;51.412;6.724;2024-01-06T13:56:40;6.00;99.90
9837;DHT22;4957;51.412;6.724;2024-01-06T13:59:06;5.90;99.90
9837;DHT22;4957;51.412;6.724;2024-01-06T14:01:32;5.90;99.90
9837;DHT22;4957;51.412;6.724;2024-01-06T14:03:58;5.90;99.90
9837;DHT22;4957;51.412;6.724;2024-01-06T14:06:27;5.90;99.90
9837;DHT22;4957;51.412;6.724;2024-01-06T14:08:59;5.90;99.90
9837;DHT22;4957;51.412;6.724;2024-01-06T14:11:25;5.90;99.90
9837;DHT22;4957;51.412;6.724;2024-01-06T14:13:52;5.90;99.90
9837;DHT22;4957;51.412;6.724;2024-01-06T14:16:18;5.90;99.90
9837;DHT22;4957;51.412;6.724;2024-01-06T14:18:44;5.90;99.90
9837;DHT22;4957;51.412;6.724;2024-01-06T14:21:10;5.90;99.90
9837;DHT22;4957;51.412;6.724;2024-01-06T14:23:36;5.90;99.90
9837;DHT22;4957;51.412;6.724;2024-01-06T14:26:02;5.90;99.90
9837;DHT22;4957;51.412;6.724;2024-01-06T14:28:28;5.80;99.90
9837;DHT22;4957;51.412;6.724;2024-01-06T14:30:55;5.80;99.90
9837;DHT22;4957;51.412;6.724;2024-01-06T14:33:21;5.80;99.90
9837;DHT22;4957;51.412;6.724;2024-01-06T14:35:47;5.80;99.90
9837;DHT22;4957;51.412;6.724;2024-01-06T14:38:13;5.80;99.90
9837;DHT22;4957;51.412;6.724;2024-01-06T14:40:38;5.80;99.90
9837;DHT22;4957;51.412;6.724;2024-01-06T14:43:04;5.80;99.90
9837;DHT22;4957;51.412;6.724;2024-01-06T14:45:31;5.80;99.90
9837;DHT22;4957;51.412;6.724;2024-01-06T14:47:57;5.80;99.90
9837;DHT22;4957;51.412;6.724;2024-01-06T14:50:22;5.80;99.90
9837;DHT22;4957;51.412;6.724;2024-01-06T14:52:48;5.70;99.90
9837;DHT22;4957;51.412;6.724;2024-01-06T14:55:14;5.80;99.90
9837;DHT22;4957;51.412;6.724;2024-01-06T14:57:40;5.70;99.90
9837;DHT22;4957;51.412;6.724;2024-01-06T15:00:06;5.70;99.90
9837;DHT22;4957;51.412;6.724;2024-01-06T15:02:38;5.70;99.90
9837;DHT22;4957;51.412;6.724;2024-01-06T15:05:05;5.70;99.90
9837;DHT22;4957;51.412;6.724;2024-01-06T15:07:31;5.70;99.90
9837;DHT22;4957;51.412;6.724;2024-01-06T15:10:00;5.70;99.90
9837;DHT22;4957;51.412;6.724;2024-01-06T15:12:27;5.70;99.90
9837;DHT22;4957;51.412;6.724;2024-01-06T15:14:53;5.70;99.90
9837;DHT22;4957;51.412;6.724;2024-01-06T15:17:19;5.60;99.90
9837;DHT22;4957;51.412;6.724;2024-01-06T15:19:47;5.70;99.90
9837;DHT22;4957;51.412;6.724;2024-01-06T15:22:14;5.70;99.90
9837;DHT22;4957;51.412;6.724;2024-01-06T15:24:40;5.60;99.90
9837;DHT22;4957;51.412;6.724;2024-01-06T15:27:08;5.60;99.90
9837;DHT22;4957;51.412;6.724;2024-01-06T15:29:34;5.60;99.90
9837;DHT22;4957;51.412;6.724;2024-01-06T15:31:59;5.60;99.90
9837;DHT22;4957;51.412;6.724;2024-01-06T15:34:25;5.60;99.90
9837;DHT22;4957;51.412;6.724;2024-01-06T15:36:51;5.60;99.90
9837;DHT22;4957;51.412;6.724;2024-01-06T15:39:17;5.60;99.90
9837;DHT22;4957;51.412;6.724;2024-01-06T15:41:43;5.60;99.90
9837;DHT22;4957;51.412;6.724;2024-01-06T15:44:09;5.60;99.90
9837;DHT22;4957;51.412;6.724;2024-01-06T15:46:34;5.60;99.90
9837;DHT22;4957;51.412;6.724;2024-01-06T15:49:01;5.50;99.90
9837;DHT22;4957;51.412;6.724;2024-01-06T15:51:27;5.50;99.90
9837;DHT22;4957;51.412;6.724;2024-01-06T15:53:53;5.50;99.90
9837;DHT22;4957;51.412;6.724;2024-01-06T15:56:19;5.50;99.90
9837;DHT22;4957;51.412;6.724;2024-01-06T15:58:44;5.50;99.90
9837;DHT22;4957;51.412;6.724;2024-01-06T16:01:10;5.50;99.90
9837;DHT22;4957;51.412;6.724;2024-01-06T16:03:36;5.50;99.90
9837;DHT22;4957;51.412;6.724;2024-01-06T16:06:02;5.50;99.90
9837;DHT22;4957;51.412;6.724;2024-01-06T16:08:27;5.50;99.90
9837;DHT22;4957;51.412;6.724;2024-01-06T16:10:54;5.50;99.90
9837;DHT22;4957;51.412;6.724;2024-01-06T16:13:20;5.50;99.90